FNLU/LAD METAR and TAF weather

Enter ICAO airport designator
Station Type Date Time Source
FNLU METAR 2022/09/28 15:00 UTC NOAA

FNLU 281500Z 26010KT 9999 FEW020 25/20 Q1010


Station Type Date Time Source
FNLU Decoded METAR 2022/09/28 15:00 UTC NOAA

Luanda, Angola (FNLU) 08-51S 013-14E 70M
Sep 28, 2022 - 11:00 AM EDT / 2022.09.28 1500 UTC
Wind: from the W (260 degrees) at 12 MPH (10 KT):0
Visibility: greater than 7 mile(s):0
Sky conditions: mostly clear
Temperature: 77 F (25 C)
Dew Point: 68 F (20 C)
Relative Humidity: 73%
Pressure (altimeter): 29.83 in. Hg (1010 hPa)
ob: FNLU 281500Z 26010KT 9999 FEW020 25/20 Q1010
cycle: 15

Station Type Date Time Source
FNLU TAF 2022/09/28 18:03 UTC NOAA

TAF TAF FNLU 281700Z 2818/2924 26010KT 9999 FEW020
TEMPO 2904/2908 VRB02KT 8000 TCU BKN020 FEW030CB
TEMPO 2912/2916 28012KT 9999 FEW018

Example: see airport list